Portada
METAR-TAF:

METAR-TAF

Aeroports :

Pyongyang, Corea del Nord

latitud: 39-02N, longitud: 125-47E, altitud: 36 m

METAR: manca

Hora: 00:12 (15:12 UTC)

Pronòstic

L'informe es va fer fa 11 hores i 2 minuts, a les 04:10 UTC
Pronòstic vàlid del 25 a les 06 UTC al 26 a les 06 UTC
Vent 8 kt del Sud
Visibilitat 10 km o més
sense núvols per sota de 1500 mi sense presència de cumulonimbus.
Temporalment
l' 25 a les 18 UTC al 25 a les 24 UTC
Visibilitat: 3000 m
boirina

TAF: ZKPY 250410Z 2506/2606 17004MPS CAVOK TX35/2506Z TN25/2520Z TEMPO 2518/2524 3000 BR

Observacions i pronòstics meteorològics de més de 4000 aeroports (METAR i TAF).

Les estacions disponibles són els punts grocs i vermells al mapa.

Posi el ratolí al punt desitjat per veure el nom de l'estació.

Feu clic per veure les observacions i els pronòstics meteorològics.

Per canviar el mapa: feu clic els botons verds amb una creu de color negre per apropar; al botó verd amb un guió per allunyar la imatge; o en les fletxes verdes per a mapes adjacents.


METAR-TAF: